sensor_id;sensor_type;location;lat;lon;timestamp;pressure;altitude;pressure_sealevel;temperature;humidity
80424;BME280;69765;47.668;19.326;2023-11-18T00:01:54;98995.44;;;3.17;81.98
80424;BME280;69765;47.668;19.326;2023-11-18T00:04:57;98992.59;;;3.23;81.84
80424;BME280;69765;47.668;19.326;2023-11-18T00:07:59;98992.03;;;3.17;82.42
80424;BME280;69765;47.668;19.326;2023-11-18T00:11:02;99000.81;;;3.20;81.25
80424;BME280;69765;47.668;19.326;2023-11-18T00:14:05;98994.41;;;3.15;81.54
80424;BME280;69765;47.668;19.326;2023-11-18T00:17:08;99003.34;;;3.20;81.33
80424;BME280;69765;47.668;19.326;2023-11-18T00:20:10;99004.06;;;3.19;80.75
80424;BME280;69765;47.668;19.326;2023-11-18T00:23:14;99011.84;;;3.12;81.68
80424;BME280;69765;47.668;19.326;2023-11-18T00:26:19;99008.44;;;3.12;81.84
80424;BME280;69765;47.668;19.326;2023-11-18T00:29:24;99032.84;;;3.11;82.13
80424;BME280;69765;47.668;19.326;2023-11-18T00:32:27;99034.75;;;3.14;81.79
80424;BME280;69765;47.668;19.326;2023-11-18T00:35:30;99041.97;;;3.00;83.34
80424;BME280;69765;47.668;19.326;2023-11-18T00:38:34;99027.50;;;3.08;83.35
80424;BME280;69765;47.668;19.326;2023-11-18T00:41:36;99023.94;;;3.06;83.18
80424;BME280;69765;47.668;19.326;2023-11-18T00:44:38;99029.72;;;3.05;83.56
80424;BME280;69765;47.668;19.326;2023-11-18T00:47:41;99039.44;;;3.00;84.04
80424;BME280;69765;47.668;19.326;2023-11-18T00:50:43;99037.22;;;2.95;84.44
80424;BME280;69765;47.668;19.326;2023-11-18T00:53:46;99038.56;;;2.91;84.52
80424;BME280;69765;47.668;19.326;2023-11-18T00:56:48;99042.41;;;2.96;83.92
80424;BME280;69765;47.668;19.326;2023-11-18T00:59:50;99041.06;;;3.00;84.75
80424;BME280;69765;47.668;19.326;2023-11-18T01:02:53;99042.16;;;2.93;84.43
80424;BME280;69765;47.668;19.326;2023-11-18T01:05:59;99037.41;;;2.88;84.78
80424;BME280;69765;47.668;19.326;2023-11-18T01:09:01;99047.22;;;2.93;84.82
80424;BME280;69765;47.668;19.326;2023-11-18T01:12:04;99051.97;;;2.90;84.54
80424;BME280;69765;47.668;19.326;2023-11-18T01:15:10;99050.19;;;2.89;84.76
80424;BME280;69765;47.668;19.326;2023-11-18T01:18:13;99050.34;;;2.91;84.47
80424;BME280;69765;47.668;19.326;2023-11-18T01:21:15;99050.66;;;2.85;84.63
80424;BME280;69765;47.668;19.326;2023-11-18T01:24:20;99048.16;;;2.76;85.12
80424;BME280;69765;47.668;19.326;2023-11-18T01:27:22;99053.81;;;2.83;84.99
80424;BME280;69765;47.668;19.326;2023-11-18T01:30:24;99046.38;;;2.75;85.03
80424;BME280;69765;47.668;19.326;2023-11-18T01:33:29;99045.91;;;2.79;85.11
80424;BME280;69765;47.668;19.326;2023-11-18T01:36:31;99055.28;;;2.80;85.22
80424;BME280;69765;47.668;19.326;2023-11-18T01:39:34;99047.09;;;2.83;85.16
80424;BME280;69765;47.668;19.326;2023-11-18T01:42:36;99046.22;;;2.83;85.02
80424;BME280;69765;47.668;19.326;2023-11-18T01:45:42;99040.75;;;2.69;85.86
80424;BME280;69765;47.668;19.326;2023-11-18T01:48:44;99045.78;;;2.78;85.31
80424;BME280;69765;47.668;19.326;2023-11-18T01:51:47;99041.91;;;2.73;85.62
80424;BME280;69765;47.668;19.326;2023-11-18T01:54:49;99036.84;;;2.73;85.88
80424;BME280;69765;47.668;19.326;2023-11-18T01:57:52;99044.34;;;2.54;86.48
80424;BME280;69765;47.668;19.326;2023-11-18T02:00:55;99039.88;;;2.60;86.38
80424;BME280;69765;47.668;19.326;2023-11-18T02:03:57;99045.25;;;2.54;87.13
80424;BME280;69765;47.668;19.326;2023-11-18T02:07:01;99050.47;;;2.39;87.33
80424;BME280;69765;47.668;19.326;2023-11-18T02:10:06;99045.84;;;2.43;87.41
80424;BME280;69765;47.668;19.326;2023-11-18T02:13:38;99057.47;;;2.41;87.64
80424;BME280;69765;47.668;19.326;2023-11-18T02:16:43;99048.13;;;2.40;87.78
80424;BME280;69765;47.668;19.326;2023-11-18T02:19:47;99057.91;;;2.46;87.91
80424;BME280;69765;47.668;19.326;2023-11-18T02:22:50;99053.16;;;2.40;87.57
80424;BME280;69765;47.668;19.326;2023-11-18T02:25:54;99066.25;;;2.45;87.17
80424;BME280;69765;47.668;19.326;2023-11-18T02:28:57;99069.34;;;2.42;87.92
80424;BME280;69765;47.668;19.326;2023-11-18T02:32:32;99064.88;;;2.40;87.54
80424;BME280;69765;47.668;19.326;2023-11-18T02:35:44;99065.31;;;2.44;87.35
80424;BME280;69765;47.668;19.326;2023-11-18T02:38:50;99065.50;;;2.46;86.84
80424;BME280;69765;47.668;19.326;2023-11-18T02:41:54;99062.66;;;2.43;87.48
80424;BME280;69765;47.668;19.326;2023-11-18T02:45:01;99057.59;;;2.43;87.11
80424;BME280;69765;47.668;19.326;2023-11-18T02:48:04;99059.81;;;2.48;86.77
80424;BME280;69765;47.668;19.326;2023-11-18T02:51:09;99059.69;;;2.29;87.00
80424;BME280;69765;47.668;19.326;2023-11-18T02:54:14;99060.44;;;2.37;87.30
80424;BME280;69765;47.668;19.326;2023-11-18T02:57:18;99060.59;;;2.39;87.59
80424;BME280;69765;47.668;19.326;2023-11-18T03:00:20;99057.31;;;2.40;86.93
80424;BME280;69765;47.668;19.326;2023-11-18T03:03:26;99058.50;;;2.43;87.26
80424;BME280;69765;47.668;19.326;2023-11-18T03:06:29;99057.03;;;2.37;86.45
80424;BME280;69765;47.668;19.326;2023-11-18T03:09:33;99051.22;;;2.38;86.95
80424;BME280;69765;47.668;19.326;2023-11-18T03:12:40;99055.53;;;2.30;86.97
80424;BME280;69765;47.668;19.326;2023-11-18T03:15:42;99064.19;;;2.32;87.31
80424;BME280;69765;47.668;19.326;2023-11-18T03:18:45;99061.91;;;2.35;87.04
80424;BME280;69765;47.668;19.326;2023-11-18T03:21:53;99056.16;;;2.36;86.36
80424;BME280;69765;47.668;19.326;2023-11-18T03:24:55;99071.31;;;2.36;87.10
80424;BME280;69765;47.668;19.326;2023-11-18T03:27:58;99073.34;;;2.49;86.88
80424;BME280;69765;47.668;19.326;2023-11-18T03:31:01;99076.03;;;2.50;87.64
80424;BME280;69765;47.668;19.326;2023-11-18T03:34:04;99088.69;;;2.42;86.81
80424;BME280;69765;47.668;19.326;2023-11-18T03:37:06;99079.16;;;2.39;86.26
80424;BME280;69765;47.668;19.326;2023-11-18T03:40:11;99064.31;;;2.34;86.98
80424;BME280;69765;47.668;19.326;2023-11-18T03:43:13;99076.63;;;2.39;86.62
80424;BME280;69765;47.668;19.326;2023-11-18T03:46:16;99078.44;;;2.40;87.45
80424;BME280;69765;47.668;19.326;2023-11-18T03:49:18;99082.00;;;2.25;87.89
80424;BME280;69765;47.668;19.326;2023-11-18T03:52:22;99075.91;;;2.32;87.76
80424;BME280;69765;47.668;19.326;2023-11-18T03:55:25;99092.25;;;2.35;87.90
80424;BME280;69765;47.668;19.326;2023-11-18T03:58:30;99096.13;;;2.32;88.20
80424;BME280;69765;47.668;19.326;2023-11-18T04:01:35;99082.00;;;2.34;87.95
80424;BME280;69765;47.668;19.326;2023-11-18T04:04:38;99076.50;;;2.38;88.44
80424;BME280;69765;47.668;19.326;2023-11-18T04:07:41;99080.66;;;2.28;88.31
80424;BME280;69765;47.668;19.326;2023-11-18T04:10:44;99084.09;;;2.38;87.67
80424;BME280;69765;47.668;19.326;2023-11-18T04:13:46;99091.34;;;2.35;88.20
80424;BME280;69765;47.668;19.326;2023-11-18T04:16:49;99094.50;;;2.23;88.97
80424;BME280;69765;47.668;19.326;2023-11-18T04:19:51;99090.47;;;2.34;88.85
80424;BME280;69765;47.668;19.326;2023-11-18T04:22:54;99095.09;;;2.29;88.99
80424;BME280;69765;47.668;19.326;2023-11-18T04:25:57;99089.31;;;2.22;89.61
80424;BME280;69765;47.668;19.326;2023-11-18T04:28:59;99098.81;;;2.33;89.37
80424;BME280;69765;47.668;19.326;2023-11-18T04:32:01;99096.28;;;2.33;89.34
80424;BME280;69765;47.668;19.326;2023-11-18T04:35:05;99097.47;;;2.28;89.13
80424;BME280;69765;47.668;19.326;2023-11-18T04:38:12;99092.56;;;2.38;90.07
80424;BME280;69765;47.668;19.326;2023-11-18T04:41:15;99098.19;;;2.44;90.35
80424;BME280;69765;47.668;19.326;2023-11-18T04:44:17;99105.31;;;2.48;90.63
80424;BME280;69765;47.668;19.326;2023-11-18T04:47:20;99099.38;;;2.48;89.44
80424;BME280;69765;47.668;19.326;2023-11-18T04:50:22;99119.78;;;2.41;89.28
80424;BME280;69765;47.668;19.326;2023-11-18T04:53:25;99112.63;;;2.37;89.34
80424;BME280;69765;47.668;19.326;2023-11-18T04:56:27;99116.06;;;2.37;90.08
80424;BME280;69765;47.668;19.326;2023-11-18T04:59:29;99132.84;;;2.37;90.04
80424;BME280;69765;47.668;19.326;2023-11-18T05:02:32;99127.34;;;2.32;90.19
80424;BME280;69765;47.668;19.326;2023-11-18T05:05:37;99127.03;;;2.38;89.78
80424;BME280;69765;47.668;19.326;2023-11-18T05:08:40;99131.06;;;2.36;89.98
80424;BME280;69765;47.668;19.326;2023-11-18T05:11:42;99136.72;;;2.42;89.34
80424;BME280;69765;47.668;19.326;2023-11-18T05:14:44;99133.13;;;2.48;89.36
80424;BME280;69765;47.668;19.326;2023-11-18T05:17:47;99139.25;;;2.42;89.64
80424;BME280;69765;47.668;19.326;2023-11-18T05:20:49;99146.69;;;2.40;90.23
80424;BME280;69765;47.668;19.326;2023-11-18T05:23:52;99146.38;;;2.37;89.92
80424;BME280;69765;47.668;19.326;2023-11-18T05:26:54;99143.53;;;2.34;90.08
80424;BME280;69765;47.668;19.326;2023-11-18T05:29:57;99153.22;;;2.47;89.60
80424;BME280;69765;47.668;19.326;2023-11-18T05:33:04;99141.47;;;2.47;89.99
80424;BME280;69765;47.668;19.326;2023-11-18T05:36:08;99146.38;;;2.37;89.39
80424;BME280;69765;47.668;19.326;2023-11-18T05:39:10;99140.88;;;2.41;90.47
80424;BME280;69765;47.668;19.326;2023-11-18T05:42:13;99132.69;;;2.35;91.06
80424;BME280;69765;47.668;19.326;2023-11-18T05:45:15;99149.78;;;2.46;89.77
80424;BME280;69765;47.668;19.326;2023-11-18T05:48:30;99149.34;;;2.42;90.60
80424;BME280;69765;47.668;19.326;2023-11-18T05:51:34;99149.50;;;2.43;91.06
80424;BME280;69765;47.668;19.326;2023-11-18T05:54:37;99159.91;;;2.38;91.45
80424;BME280;69765;47.668;19.326;2023-11-18T05:57:39;99160.50;;;2.52;91.02
80424;BME280;69765;47.668;19.326;2023-11-18T06:00:41;99177.16;;;2.50;90.36
80424;BME280;69765;47.668;19.326;2023-11-18T06:03:44;99181.47;;;2.60;90.69
80424;BME280;69765;47.668;19.326;2023-11-18T06:06:48;99183.56;;;2.55;90.50
80424;BME280;69765;47.668;19.326;2023-11-18T06:09:50;99179.97;;;2.62;90.21
80424;BME280;69765;47.668;19.326;2023-11-18T06:12:53;99187.41;;;2.69;89.84
80424;BME280;69765;47.668;19.326;2023-11-18T06:16:00;99194.97;;;2.87;88.58
80424;BME280;69765;47.668;19.326;2023-11-18T06:19:02;99193.28;;;3.13;87.36
80424;BME280;69765;47.668;19.326;2023-11-18T06:22:07;99197.41;;;4.02;83.37
80424;BME280;69765;47.668;19.326;2023-11-18T06:25:09;99187.44;;;4.60;80.72
80424;BME280;69765;47.668;19.326;2023-11-18T06:28:11;99197.03;;;5.21;77.38
80424;BME280;69765;47.668;19.326;2023-11-18T06:31:14;99199.78;;;5.43;75.57
80424;BME280;69765;47.668;19.326;2023-11-18T06:34:16;99203.72;;;5.89;74.59
80424;BME280;69765;47.668;19.326;2023-11-18T06:37:20;99211.78;;;6.24;73.12
80424;BME280;69765;47.668;19.326;2023-11-18T06:40:23;99203.13;;;7.05;68.79
80424;BME280;69765;47.668;19.326;2023-11-18T06:43:29;99212.16;;;7.66;66.62
80424;BME280;69765;47.668;19.326;2023-11-18T06:46:44;99219.53;;;7.73;65.13
80424;BME280;69765;47.668;19.326;2023-11-18T06:49:46;99211.75;;;8.49;62.71
80424;BME280;69765;47.668;19.326;2023-11-18T06:52:50;99211.09;;;9.22;59.64
80424;BME280;69765;47.668;19.326;2023-11-18T06:55:53;99216.78;;;9.78;57.08
80424;BME280;69765;47.668;19.326;2023-11-18T06:58:56;99223.56;;;10.26;55.33
80424;BME280;69765;47.668;19.326;2023-11-18T07:01:59;99226.00;;;11.01;53.36
80424;BME280;69765;47.668;19.326;2023-11-18T07:05:01;99231.97;;;10.88;52.79
80424;BME280;69765;47.668;19.326;2023-11-18T07:08:04;99229.41;;;11.28;51.80
80424;BME280;69765;47.668;19.326;2023-11-18T07:11:06;99233.81;;;11.57;49.98
80424;BME280;69765;47.668;19.326;2023-11-18T07:14:12;99223.03;;;11.76;49.69
80424;BME280;69765;47.668;19.326;2023-11-18T07:17:14;99241.78;;;12.44;47.26
80424;BME280;69765;47.668;19.326;2023-11-18T07:20:17;99228.34;;;12.48;47.81
80424;BME280;69765;47.668;19.326;2023-11-18T07:23:19;99231.38;;;12.71;46.83
80424;BME280;69765;47.668;19.326;2023-11-18T07:26:22;99230.66;;;12.73;47.03
80424;BME280;69765;47.668;19.326;2023-11-18T07:29:26;99221.75;;;13.42;44.44
80424;BME280;69765;47.668;19.326;2023-11-18T07:32:29;99219.66;;;13.66;44.11
80424;BME280;69765;47.668;19.326;2023-11-18T07:35:32;99219.69;;;13.99;43.14
80424;BME280;69765;47.668;19.326;2023-11-18T07:38:34;99215.38;;;14.99;40.97
80424;BME280;69765;47.668;19.326;2023-11-18T07:41:37;99221.44;;;14.32;41.96
80424;BME280;69765;47.668;19.326;2023-11-18T07:44:39;99233.28;;;14.45;41.88
80424;BME280;69765;47.668;19.326;2023-11-18T07:47:42;99225.78;;;14.66;41.38
80424;BME280;69765;47.668;19.326;2023-11-18T07:50:44;99232.72;;;14.02;42.23
80424;BME280;69765;47.668;19.326;2023-11-18T07:53:50;99229.50;;;14.39;41.36
80424;BME280;69765;47.668;19.326;2023-11-18T07:56:52;99232.72;;;15.37;40.02
80424;BME280;69765;47.668;19.326;2023-11-18T07:59:56;99226.69;;;15.72;38.06
80424;BME280;69765;47.668;19.326;2023-11-18T08:02:58;99227.56;;;15.55;38.28
80424;BME280;69765;47.668;19.326;2023-11-18T08:06:02;99224.31;;;16.74;36.81
80424;BME280;69765;47.668;19.326;2023-11-18T08:09:05;99228.16;;;16.04;37.11
80424;BME280;69765;47.668;19.326;2023-11-18T08:12:12;99242.63;;;16.59;36.26
80424;BME280;69765;47.668;19.326;2023-11-18T08:15:16;99250.44;;;15.65;38.33
80424;BME280;69765;47.668;19.326;2023-11-18T08:18:18;99247.81;;;16.20;37.20
80424;BME280;69765;47.668;19.326;2023-11-18T08:21:23;99242.97;;;17.28;35.67
80424;BME280;69765;47.668;19.326;2023-11-18T08:24:26;99235.63;;;16.76;35.13
80424;BME280;69765;47.668;19.326;2023-11-18T08:27:28;99247.47;;;16.71;36.06
80424;BME280;69765;47.668;19.326;2023-11-18T08:30:31;99249.47;;;16.38;36.05
80424;BME280;69765;47.668;19.326;2023-11-18T08:33:36;99247.66;;;16.95;35.91
80424;BME280;69765;47.668;19.326;2023-11-18T08:36:38;99257.59;;;16.08;37.30
80424;BME280;69765;47.668;19.326;2023-11-18T08:39:40;99262.50;;;16.41;37.23
80424;BME280;69765;47.668;19.326;2023-11-18T08:42:49;99274.75;;;15.52;38.15
80424;BME280;69765;47.668;19.326;2023-11-18T08:45:53;99257.94;;;16.35;36.26
80424;BME280;69765;47.668;19.326;2023-11-18T08:48:56;99275.69;;;15.01;39.86
80424;BME280;69765;47.668;19.326;2023-11-18T08:51:59;99266.97;;;15.69;37.32
80424;BME280;69765;47.668;19.326;2023-11-18T08:55:01;99268.78;;;15.71;37.95
80424;BME280;69765;47.668;19.326;2023-11-18T08:58:19;99269.00;;;15.76;38.83
80424;BME280;69765;47.668;19.326;2023-11-18T09:01:24;99258.03;;;15.80;38.10
80424;BME280;69765;47.668;19.326;2023-11-18T09:04:33;99278.47;;;15.57;39.04
80424;BME280;69765;47.668;19.326;2023-11-18T09:07:35;99263.47;;;16.81;36.39
80424;BME280;69765;47.668;19.326;2023-11-18T09:10:39;99271.31;;;15.70;38.85
80424;BME280;69765;47.668;19.326;2023-11-18T09:13:44;99272.25;;;15.54;38.39
80424;BME280;69765;47.668;19.326;2023-11-18T09:16:52;99259.50;;;16.12;37.31
80424;BME280;69765;47.668;19.326;2023-11-18T09:19:57;99252.97;;;16.59;36.33
80424;BME280;69765;47.668;19.326;2023-11-18T09:22:59;99254.63;;;16.38;36.80
80424;BME280;69765;47.668;19.326;2023-11-18T09:26:02;99254.31;;;15.93;37.38
80424;BME280;69765;47.668;19.326;2023-11-18T09:29:09;99246.25;;;16.04;37.45
80424;BME280;69765;47.668;19.326;2023-11-18T09:32:13;99249.25;;;16.52;36.66
80424;BME280;69765;47.668;19.326;2023-11-18T09:35:17;99247.47;;;16.32;36.55
80424;BME280;69765;47.668;19.326;2023-11-18T09:38:21;99235.66;;;17.18;35.72
80424;BME280;69765;47.668;19.326;2023-11-18T09:41:24;99241.00;;;17.01;35.40
80424;BME280;69765;47.668;19.326;2023-11-18T09:44:29;99240.81;;;16.97;36.93
80424;BME280;69765;47.668;19.326;2023-11-18T09:47:43;99252.16;;;16.60;36.21
80424;BME280;69765;47.668;19.326;2023-11-18T09:50:50;99249.53;;;17.20;34.94
80424;BME280;69765;47.668;19.326;2023-11-18T09:53:54;99249.72;;;16.63;36.40
80424;BME280;69765;47.668;19.326;2023-11-18T09:57:04;99248.50;;;17.16;35.45
80424;BME280;69765;47.668;19.326;2023-11-18T10:00:15;99243.69;;;16.24;36.08
80424;BME280;69765;47.668;19.326;2023-11-18T10:03:35;99240.41;;;17.73;34.87
80424;BME280;69765;47.668;19.326;2023-11-18T10:06:42;99243.34;;;17.16;36.14
80424;BME280;69765;47.668;19.326;2023-11-18T10:09:47;99246.41;;;17.49;35.13
80424;BME280;69765;47.668;19.326;2023-11-18T10:12:51;99251.59;;;17.72;34.89
80424;BME280;69765;47.668;19.326;2023-11-18T10:16:02;99250.47;;;16.80;35.08
80424;BME280;69765;47.668;19.326;2023-11-18T10:19:07;99262.25;;;16.73;36.39
80424;BME280;69765;47.668;19.326;2023-11-18T10:22:21;99263.97;;;16.94;35.56
80424;BME280;69765;47.668;19.326;2023-11-18T10:25:25;99260.09;;;16.84;35.88
80424;BME280;69765;47.668;19.326;2023-11-18T10:28:32;99253.31;;;16.86;35.45
80424;BME280;69765;47.668;19.326;2023-11-18T10:31:36;99255.91;;;17.07;35.97
80424;BME280;69765;47.668;19.326;2023-11-18T10:34:39;99255.09;;;17.08;34.44
80424;BME280;69765;47.668;19.326;2023-11-18T10:37:42;99255.94;;;16.88;35.45
80424;BME280;69765;47.668;19.326;2023-11-18T10:40:46;99239.56;;;17.29;34.54
80424;BME280;69765;47.668;19.326;2023-11-18T10:43:49;99247.38;;;16.89;35.08
80424;BME280;69765;47.668;19.326;2023-11-18T10:46:52;99254.72;;;16.99;34.03
80424;BME280;69765;47.668;19.326;2023-11-18T10:49:55;99274.63;;;16.61;35.63
80424;BME280;69765;47.668;19.326;2023-11-18T10:53:01;99276.13;;;16.95;35.33
80424;BME280;69765;47.668;19.326;2023-11-18T10:56:05;99267.22;;;15.03;38.46
80424;BME280;69765;47.668;19.326;2023-11-18T10:59:08;99289.59;;;14.21;39.90
80424;BME280;69765;47.668;19.326;2023-11-18T11:02:19;99292.34;;;14.57;39.84
80424;BME280;69765;47.668;19.326;2023-11-18T11:05:29;99277.38;;;14.50;39.72
80424;BME280;69765;47.668;19.326;2023-11-18T11:08:35;99284.97;;;13.68;40.74
80424;BME280;69765;47.668;19.326;2023-11-18T11:11:42;99279.25;;;14.05;40.92
80424;BME280;69765;47.668;19.326;2023-11-18T11:18:05;99277.59;;;15.05;38.90
80424;BME280;69765;47.668;19.326;2023-11-18T11:21:16;99284.19;;;15.16;38.24
80424;BME280;69765;47.668;19.326;2023-11-18T11:25:20;99297.91;;;15.33;38.07
80424;BME280;69765;47.668;19.326;2023-11-18T11:28:19;99290.31;;;15.18;38.49
80424;BME280;69765;47.668;19.326;2023-11-18T11:34:49;99305.13;;;14.23;39.24
80424;BME280;69765;47.668;19.326;2023-11-18T11:37:54;99310.63;;;13.67;39.70
80424;BME280;69765;47.668;19.326;2023-11-18T11:41:05;99309.31;;;13.59;40.30
80424;BME280;69765;47.668;19.326;2023-11-18T11:44:12;99315.03;;;13.23;41.08
80424;BME280;69765;47.668;19.326;2023-11-18T11:47:15;99313.00;;;13.64;41.32
80424;BME280;69765;47.668;19.326;2023-11-18T11:50:37;99324.59;;;13.87;40.04
80424;BME280;69765;47.668;19.326;2023-11-18T11:53:49;99329.50;;;14.13;41.22
80424;BME280;69765;47.668;19.326;2023-11-18T11:56:56;99341.28;;;13.47;40.52
80424;BME280;69765;47.668;19.326;2023-11-18T12:00:09;99337.03;;;13.33;41.08
80424;BME280;69765;47.668;19.326;2023-11-18T12:03:21;99347.44;;;13.07;42.28
80424;BME280;69765;47.668;19.326;2023-11-18T12:06:26;99353.56;;;13.09;42.10
80424;BME280;69765;47.668;19.326;2023-11-18T12:09:31;99364.03;;;12.41;43.42
80424;BME280;69765;47.668;19.326;2023-11-18T12:12:39;99356.41;;;13.13;42.36
80424;BME280;69765;47.668;19.326;2023-11-18T12:15:49;99355.97;;;12.63;42.83
80424;BME280;69765;47.668;19.326;2023-11-18T12:19:32;99370.53;;;11.81;44.76
80424;BME280;69765;47.668;19.326;2023-11-18T12:23:04;99367.53;;;11.62;43.33
80424;BME280;69765;47.668;19.326;2023-11-18T12:26:39;99380.53;;;11.38;44.89
80424;BME280;69765;47.668;19.326;2023-11-18T12:29:46;99376.25;;;11.12;45.48
80424;BME280;69765;47.668;19.326;2023-11-18T12:33:05;99380.84;;;11.30;44.59
80424;BME280;69765;47.668;19.326;2023-11-18T12:43:02;99391.75;;;9.80;47.72
80424;BME280;69765;47.668;19.326;2023-11-18T12:46:34;99392.53;;;9.56;49.96
80424;BME280;69765;47.668;19.326;2023-11-18T12:49:45;99396.75;;;9.32;49.84
80424;BME280;69765;47.668;19.326;2023-11-18T12:52:52;99388.56;;;9.14;50.19
80424;BME280;69765;47.668;19.326;2023-11-18T12:55:57;99399.94;;;9.17;50.88
80424;BME280;69765;47.668;19.326;2023-11-18T12:59:01;99400.50;;;8.91;49.84
80424;BME280;69765;47.668;19.326;2023-11-18T13:02:11;99408.78;;;8.77;49.42
80424;BME280;69765;47.668;19.326;2023-11-18T13:05:23;99421.19;;;8.73;51.29
80424;BME280;69765;47.668;19.326;2023-11-18T13:08:32;99412.72;;;8.62;50.76
80424;BME280;69765;47.668;19.326;2023-11-18T13:11:34;99419.31;;;8.48;51.11
80424;BME280;69765;47.668;19.326;2023-11-18T13:14:38;99424.44;;;8.28;52.24
80424;BME280;69765;47.668;19.326;2023-11-18T13:18:03;99419.06;;;8.35;51.31
80424;BME280;69765;47.668;19.326;2023-11-18T13:21:13;99412.44;;;8.37;52.36
80424;BME280;69765;47.668;19.326;2023-11-18T13:24:16;99416.78;;;8.28;53.28
80424;BME280;69765;47.668;19.326;2023-11-18T13:27:19;99415.53;;;8.23;52.97
80424;BME280;69765;47.668;19.326;2023-11-18T13:30:22;99424.19;;;8.03;53.22
80424;BME280;69765;47.668;19.326;2023-11-18T13:33:24;99422.31;;;7.80;53.94
80424;BME280;69765;47.668;19.326;2023-11-18T13:36:27;99432.81;;;7.73;54.17
80424;BME280;69765;47.668;19.326;2023-11-18T13:39:30;99440.84;;;7.57;54.63
80424;BME280;69765;47.668;19.326;2023-11-18T13:42:33;99440.84;;;7.57;54.87
80424;BME280;69765;47.668;19.326;2023-11-18T13:45:38;99449.28;;;7.56;55.17
80424;BME280;69765;47.668;19.326;2023-11-18T13:48:41;99441.63;;;7.46;55.47
80424;BME280;69765;47.668;19.326;2023-11-18T13:51:49;99442.53;;;7.46;55.90
80424;BME280;69765;47.668;19.326;2023-11-18T13:54:52;99445.22;;;7.27;56.46
80424;BME280;69765;47.668;19.326;2023-11-18T13:57:59;99443.16;;;7.23;56.87
80424;BME280;69765;47.668;19.326;2023-11-18T14:01:01;99457.44;;;7.21;56.88
80424;BME280;69765;47.668;19.326;2023-11-18T14:04:05;99448.00;;;7.10;57.59
80424;BME280;69765;47.668;19.326;2023-11-18T14:07:07;99462.78;;;7.04;56.60
80424;BME280;69765;47.668;19.326;2023-11-18T14:10:12;99459.06;;;7.00;57.90
80424;BME280;69765;47.668;19.326;2023-11-18T14:13:29;99464.31;;;7.02;56.94
80424;BME280;69765;47.668;19.326;2023-11-18T14:16:33;99474.00;;;7.06;57.02
80424;BME280;69765;47.668;19.326;2023-11-18T14:19:36;99473.72;;;6.93;56.35
80424;BME280;69765;47.668;19.326;2023-11-18T14:22:40;99474.72;;;6.84;56.32
80424;BME280;69765;47.668;19.326;2023-11-18T14:25:45;99462.75;;;6.83;56.32
80424;BME280;69765;47.668;19.326;2023-11-18T14:28:51;99470.72;;;6.68;55.84
80424;BME280;69765;47.668;19.326;2023-11-18T14:31:53;99481.19;;;6.71;55.95
80424;BME280;69765;47.668;19.326;2023-11-18T14:34:59;99483.69;;;6.60;55.83
80424;BME280;69765;47.668;19.326;2023-11-18T14:38:02;99483.56;;;6.59;56.25
80424;BME280;69765;47.668;19.326;2023-11-18T14:41:04;99489.78;;;6.62;56.72
80424;BME280;69765;47.668;19.326;2023-11-18T14:44:07;99504.44;;;6.55;57.56
80424;BME280;69765;47.668;19.326;2023-11-18T14:47:12;99501.97;;;6.46;57.91
80424;BME280;69765;47.668;19.326;2023-11-18T14:50:19;99516.19;;;6.44;57.87
80424;BME280;69765;47.668;19.326;2023-11-18T14:53:21;99503.06;;;6.39;58.27
80424;BME280;69765;47.668;19.326;2023-11-18T14:56:24;99513.59;;;6.34;59.01
80424;BME280;69765;47.668;19.326;2023-11-18T14:59:27;99517.94;;;6.35;59.20
80424;BME280;69765;47.668;19.326;2023-11-18T15:02:29;99528.75;;;6.32;59.63
80424;BME280;69765;47.668;19.326;2023-11-18T15:05:33;99533.22;;;6.16;60.27
80424;BME280;69765;47.668;19.326;2023-11-18T15:08:36;99538.81;;;6.12;60.68
80424;BME280;69765;47.668;19.326;2023-11-18T15:11:44;99545.69;;;6.13;60.70
80424;BME280;69765;47.668;19.326;2023-11-18T15:14:47;99542.56;;;6.07;60.73
80424;BME280;69765;47.668;19.326;2023-11-18T15:17:51;99548.41;;;6.06;62.01
80424;BME280;69765;47.668;19.326;2023-11-18T15:20:54;99556.34;;;5.81;65.11
80424;BME280;69765;47.668;19.326;2023-11-18T15:23:58;99547.13;;;5.73;65.16
80424;BME280;69765;47.668;19.326;2023-11-18T15:27:05;99543.56;;;5.71;65.27
80424;BME280;69765;47.668;19.326;2023-11-18T15:30:08;99545.47;;;5.55;66.76
80424;BME280;69765;47.668;19.326;2023-11-18T15:33:12;99549.66;;;5.54;66.89
80424;BME280;69765;47.668;19.326;2023-11-18T15:36:17;99555.69;;;5.46;67.71
80424;BME280;69765;47.668;19.326;2023-11-18T15:39:19;99556.28;;;5.44;67.20
80424;BME280;69765;47.668;19.326;2023-11-18T15:42:22;99569.34;;;5.38;67.72
80424;BME280;69765;47.668;19.326;2023-11-18T15:45:24;99576.22;;;5.30;68.31
80424;BME280;69765;47.668;19.326;2023-11-18T15:48:29;99576.44;;;5.23;68.85
80424;BME280;69765;47.668;19.326;2023-11-18T15:51:33;99579.00;;;5.15;68.86
80424;BME280;69765;47.668;19.326;2023-11-18T15:54:36;99578.88;;;5.13;69.09
80424;BME280;69765;47.668;19.326;2023-11-18T15:57:41;99592.59;;;5.15;69.16
80424;BME280;69765;47.668;19.326;2023-11-18T16:00:43;99588.44;;;5.07;69.22
80424;BME280;69765;47.668;19.326;2023-11-18T16:03:46;99580.22;;;5.09;69.72
80424;BME280;69765;47.668;19.326;2023-11-18T16:06:48;99582.78;;;5.01;69.92
80424;BME280;69765;47.668;19.326;2023-11-18T16:09:51;99579.31;;;5.09;69.33
80424;BME280;69765;47.668;19.326;2023-11-18T16:12:55;99593.25;;;5.04;69.29
80424;BME280;69765;47.668;19.326;2023-11-18T16:15:57;99592.97;;;4.92;70.55
80424;BME280;69765;47.668;19.326;2023-11-18T16:19:00;99587.16;;;4.84;70.52
80424;BME280;69765;47.668;19.326;2023-11-18T16:22:02;99597.47;;;4.86;70.50
80424;BME280;69765;47.668;19.326;2023-11-18T16:25:06;99589.84;;;4.86;70.04
80424;BME280;69765;47.668;19.326;2023-11-18T16:28:08;99591.94;;;4.81;70.32
80424;BME280;69765;47.668;19.326;2023-11-18T16:31:11;99587.78;;;4.82;70.08